Aérodrome :
LOGIN :

S'inscrire | Disclaimer

   EN    FR    IT 

 










Légende :    VFR   VFR Marginal   IFR   IFR Intensif   IFR Très Intensif
Visi : 
Plafond : 
>= 8 km
>= 3000ft
5 à 8 km
1000 à 3000 ft
1500m à 5 km
500 à 1000 ft
800 à 1500m
200 à 500 ft
< 800m
< 200 ft
Symboles :   Orages  Brouillard  Fortes neiges  Fortes précipitations  Vent > 20 kt
SIGMETs :   Divers  Orages  Givrage  Turbulence  Onde Orograph.  Cendres Volcan.






- Altitude de l'aérodrome : 436 ft
- Code IATA : BTS


LZIB - Bratislava

DERNIER METAR :
  • 220430Z 03006KT CAVOK 12/08 Q1017 NOSIG

METARs EXPIRÉS :
  • 220400Z 02007KT CAVOK 13/08 Q1017 NOSIG
  • 220330Z 02007KT CAVOK 12/08 Q1017
  • 220300Z 02006KT CAVOK 12/07 Q1017
  • 220230Z 03006KT CAVOK 12/07 Q1017
  • 220200Z 04006KT CAVOK 12/07 Q1017

TAF TAF LZIB
Valide du 22 à 00h jusqu'au 23 à 00h UTC


212300Z 2200/2300 VRB02KT CAVOK
BECMG 2208/2210 14014KT
BECMG 2218/2220 06004KT



MET'MAP, la Météo Aéronautique d'un coup d'oeil ! - Copyright ORBIFLY Décembre 2007 - Disclaimer

ORBIFLY MET'MAP TEAM :

Programmation & Développement : Alexandra Zaïnal
Sur une idée originale de : Baudouin d'Aumeries
Assistance à la programmation : Marc-Olivier Méhu
Soutien technique & logistique : Manuel Goepfert

Contact : metmap@orbifly.com




SOURCES & CREDITS :

   NOAA